Time,TemperatureF,DewpointF,PressureIn,WindDirection,WindDirectionDegrees,WindSpeedMPH,WindSpeedGustMPH,Humidity,HourlyPrecipIn,Conditions,Clouds,dailyrainin,SolarRadiationWatts/m^2,SoftwareType,DateUTC
2013-02-20 00:07:00,10.7,2.0,30.15,NW,304,7.0,11.0,69,0.00,,,0.00,0,weatherlink.com 1.10,2013-02-20 06:07:00,
2013-02-20 00:22:00,10.6,2.0,30.15,West,273,4.0,11.0,69,0.00,,,0.00,0,weatherlink.com 1.10,2013-02-20 06:22:00,
2013-02-20 00:37:00,10.5,2.0,30.16,WNW,283,7.0,12.0,69,0.00,,,0.00,0,weatherlink.com 1.10,2013-02-20 06:37:00,
2013-02-20 00:52:00,10.4,2.0,30.17,NNW,329,3.0,15.0,69,0.00,,,0.00,0,weatherlink.com 1.10,2013-02-20 06:52:00,
2013-02-20 01:08:00,10.3,2.0,30.18,WNW,288,1.0,10.0,70,0.00,,,0.00,0,weatherlink.com 1.10,2013-02-20 07:08:00,
2013-02-20 01:23:00,10.2,2.0,30.18,NNW,347,6.0,12.0,70,0.00,,,0.00,0,weatherlink.com 1.10,2013-02-20 07:23:00,
2013-02-20 01:37:00,10.1,2.0,30.18,WNW,286,1.0,10.0,70,0.00,,,0.00,0,weatherlink.com 1.10,2013-02-20 07:37:00,
2013-02-20 01:52:00,10.0,2.0,30.19,NW,319,2.0,11.0,70,0.00,,,0.00,0,weatherlink.com 1.10,2013-02-20 07:52:00,
2013-02-20 02:07:00,10.0,2.0,30.19,WNW,286,1.0,8.0,71,0.00,,,0.00,0,weatherlink.com 1.10,2013-02-20 08:07:00,
2013-02-20 02:23:00,9.8,2.0,30.20,West,277,1.0,11.0,71,0.00,,,0.00,0,weatherlink.com 1.10,2013-02-20 08:23:00,
2013-02-20 02:37:00,9.6,2.0,30.21,NNW,331,3.0,11.0,71,0.00,,,0.00,0,weatherlink.com 1.10,2013-02-20 08:37:00,
2013-02-20 02:53:00,9.5,2.0,30.21,WNW,294,3.0,12.0,72,0.00,,,0.00,0,weatherlink.com 1.10,2013-02-20 08:53:00,
2013-02-20 03:08:00,9.5,2.0,30.21,NW,311,1.0,10.0,72,0.00,,,0.00,0,weatherlink.com 1.10,2013-02-20 09:08:00,
2013-02-20 03:23:00,9.4,2.0,30.22,NNE,23,3.0,13.0,72,0.00,,,0.00,0,weatherlink.com 1.10,2013-02-20 09:23:00,
2013-02-20 03:38:00,9.3,2.0,30.22,NW,315,3.0,12.0,72,0.00,,,0.00,0,weatherlink.com 1.10,2013-02-20 09:38:00,
2013-02-20 03:53:00,9.2,2.0,30.22,North,355,7.0,9.0,72,0.00,,,0.00,0,weatherlink.com 1.10,2013-02-20 09:53:00,
2013-02-20 04:08:00,9.1,2.0,30.23,NW,313,2.0,12.0,72,0.00,,,0.00,0,weatherlink.com 1.10,2013-02-20 10:08:00,
2013-02-20 04:23:00,9.0,2.0,30.24,West,275,8.0,12.0,72,0.00,,,0.00,0,weatherlink.com 1.10,2013-02-20 10:23:00,
2013-02-20 04:38:00,9.0,2.0,30.25,WNW,294,4.0,15.0,73,0.00,,,0.00,0,weatherlink.com 1.10,2013-02-20 10:38:00,
2013-02-20 04:53:00,8.9,2.0,30.26,WNW,286,7.0,8.0,73,0.00,,,0.00,0,weatherlink.com 1.10,2013-02-20 10:53:00,
2013-02-20 05:08:00,8.8,2.0,30.26,North,5,6.0,9.0,74,0.00,,,0.00,0,weatherlink.com 1.10,2013-02-20 11:08:00,
2013-02-20 05:23:00,8.7,2.0,30.27,WNW,294,6.0,11.0,74,0.00,,,0.00,0,weatherlink.com 1.10,2013-02-20 11:23:00,
2013-02-20 05:38:00,8.7,2.0,30.27,WNW,298,5.0,10.0,74,0.00,,,0.00,0,weatherlink.com 1.10,2013-02-20 11:38:00,
2013-02-20 05:53:00,8.7,2.0,30.28,NW,307,4.0,14.0,74,0.00,,,0.00,0,weatherlink.com 1.10,2013-02-20 11:53:00,
2013-02-20 06:08:00,8.7,2.0,30.28,WNW,289,5.0,10.0,74,0.00,,,0.00,0,weatherlink.com 1.10,2013-02-20 12:08:00,
2013-02-20 06:23:00,8.7,2.0,30.28,NW,317,4.0,12.0,75,0.00,,,0.00,0,weatherlink.com 1.10,2013-02-20 12:23:00,
2013-02-20 06:38:00,8.6,2.0,30.29,NW,325,3.0,11.0,75,0.00,,,0.00,0,weatherlink.com 1.10,2013-02-20 12:38:00,
2013-02-20 06:54:00,8.7,2.0,30.29,NW,313,2.0,9.0,75,0.00,,,0.00,9,weatherlink.com 1.10,2013-02-20 12:54:00,
2013-02-20 07:24:00,9.1,3.0,30.30,WNW,291,2.0,9.0,75,0.00,,,0.00,25,weatherlink.com 1.10,2013-02-20 13:24:00,
2013-02-20 07:39:00,9.5,3.0,30.30,WNW,282,6.0,9.0,75,0.00,,,0.00,30,weatherlink.com 1.10,2013-02-20 13:39:00,
2013-02-20 07:54:00,10.1,4.0,30.30,WNW,301,5.0,10.0,75,0.00,,,0.00,33,weatherlink.com 1.10,2013-02-20 13:54:00,
2013-02-20 08:09:00,10.8,4.0,30.31,WNW,302,6.0,9.0,74,0.00,,,0.00,37,weatherlink.com 1.10,2013-02-20 14:09:00,
2013-02-20 08:24:00,11.5,4.0,30.30,North,351,7.0,10.0,73,0.00,,,0.00,69,weatherlink.com 1.10,2013-02-20 14:24:00,
2013-02-20 08:39:00,12.4,5.0,30.30,WNW,298,3.0,10.0,73,0.00,,,0.00,44,weatherlink.com 1.10,2013-02-20 14:39:00,
2013-02-20 08:54:00,13.2,6.0,30.31,NW,311,3.0,14.0,72,0.00,,,0.00,47,weatherlink.com 1.10,2013-02-20 14:54:00,
2013-02-20 09:09:00,13.8,6.0,30.31,North,350,7.0,16.0,71,0.00,,,0.00,54,weatherlink.com 1.10,2013-02-20 15:09:00,
2013-02-20 09:25:00,14.4,6.0,30.31,WNW,302,5.0,14.0,70,0.00,,,0.00,422,weatherlink.com 1.10,2013-02-20 15:25:00,
2013-02-20 09:39:00,14.9,6.0,30.32,NNW,329,3.0,12.0,68,0.00,,,0.00,455,weatherlink.com 1.10,2013-02-20 15:39:00,
2013-02-20 09:54:00,15.8,7.0,30.32,North,350,4.0,11.0,68,0.00,,,0.00,489,weatherlink.com 1.10,2013-02-20 15:54:00,
2013-02-20 10:09:00,16.6,7.0,30.32,NW,307,5.0,10.0,67,0.00,,,0.00,338,weatherlink.com 1.10,2013-02-20 16:09:00,
2013-02-20 10:25:00,17.2,8.0,30.32,NW,304,4.0,8.0,68,0.00,,,0.00,323,weatherlink.com 1.10,2013-02-20 16:25:00,
2013-02-20 10:40:00,18.0,8.0,30.33,NW,304,2.0,9.0,66,0.00,,,0.00,381,weatherlink.com 1.10,2013-02-20 16:40:00,
2013-02-20 10:55:00,18.7,9.0,30.34,WNW,300,2.0,7.0,65,0.00,,,0.00,221,weatherlink.com 1.10,2013-02-20 16:55:00,
2013-02-20 11:10:00,18.6,8.0,30.34,NE,43,2.0,8.0,64,0.00,,,0.00,436,weatherlink.com 1.10,2013-02-20 17:10:00,
2013-02-20 11:25:00,19.1,8.0,30.35,NE,51,2.0,8.0,63,0.00,,,0.00,606,weatherlink.com 1.10,2013-02-20 17:25:00,
2013-02-20 11:40:00,19.2,8.0,30.35,NE,34,4.0,8.0,63,0.00,,,0.00,610,weatherlink.com 1.10,2013-02-20 17:40:00,
2013-02-20 11:55:00,20.0,9.0,30.35,North,360,2.0,8.0,63,0.00,,,0.00,617,weatherlink.com 1.10,2013-02-20 17:55:00,
2013-02-20 12:10:00,20.5,10.0,30.34,NNW,332,3.0,6.0,64,0.00,,,0.00,615,weatherlink.com 1.10,2013-02-20 18:10:00,
2013-02-20 12:25:00,20.6,10.0,30.34,North,10,4.0,7.0,63,0.00,,,0.00,462,weatherlink.com 1.10,2013-02-20 18:25:00,
2013-02-20 12:41:00,21.2,11.0,30.33,NE,55,4.0,5.0,64,0.00,,,0.00,439,weatherlink.com 1.10,2013-02-20 18:41:00,
2013-02-20 12:55:00,20.9,10.0,30.33,NNW,333,4.0,7.0,63,0.00,,,0.00,385,weatherlink.com 1.10,2013-02-20 18:55:00,
2013-02-20 13:11:00,21.2,10.0,30.33,North,360,3.0,7.0,63,0.00,,,0.00,438,weatherlink.com 1.10,2013-02-20 19:11:00,
2013-02-20 13:25:00,21.3,10.0,30.34,ENE,58,3.0,6.0,63,0.00,,,0.00,199,weatherlink.com 1.10,2013-02-20 19:25:00,
2013-02-20 13:41:00,21.5,11.0,30.35,NNW,338,2.0,6.0,64,0.00,,,0.00,431,weatherlink.com 1.10,2013-02-20 19:41:00,
2013-02-20 13:56:00,22.0,11.0,30.37,NNW,327,2.0,8.0,64,0.00,,,0.00,468,weatherlink.com 1.10,2013-02-20 19:56:00,
2013-02-20 14:11:00,22.3,11.0,30.38,NNE,15,2.0,6.0,63,0.00,,,0.00,188,weatherlink.com 1.10,2013-02-20 20:11:00,
2013-02-20 14:26:00,22.6,12.0,30.38,WNW,292,4.0,6.0,64,0.00,,,0.00,506,weatherlink.com 1.10,2013-02-20 20:26:00,
2013-02-20 14:41:00,22.2,12.0,30.38,NW,318,3.0,5.0,65,0.00,,,0.00,162,weatherlink.com 1.10,2013-02-20 20:41:00,
2013-02-20 14:56:00,22.2,11.0,30.38,WNW,298,1.0,5.0,63,0.00,,,0.00,151,weatherlink.com 1.10,2013-02-20 20:56:00,
2013-02-20 15:11:00,22.2,11.0,30.37,NE,45,4.0,8.0,62,0.00,,,0.00,58,weatherlink.com 1.10,2013-02-20 21:11:00,
2013-02-20 15:26:00,22.1,12.0,30.36,NW,309,2.0,8.0,64,0.00,,,0.00,51,weatherlink.com 1.10,2013-02-20 21:26:00,
2013-02-20 15:41:00,22.0,11.0,30.36,WNW,295,5.0,8.0,63,0.00,,,0.00,51,weatherlink.com 1.10,2013-02-20 21:41:00,
2013-02-20 15:56:00,21.8,11.0,30.36,WNW,295,5.0,8.0,64,0.00,,,0.00,54,weatherlink.com 1.10,2013-02-20 21:56:00,
2013-02-20 16:11:00,22.0,11.0,30.36,NW,305,3.0,7.0,64,0.00,,,0.00,49,weatherlink.com 1.10,2013-02-20 22:11:00,
2013-02-20 16:26:00,22.2,11.0,30.37,NNW,348,4.0,8.0,63,0.00,,,0.00,44,weatherlink.com 1.10,2013-02-20 22:26:00,
2013-02-20 16:42:00,21.9,11.0,30.36,NNW,348,4.0,7.0,64,0.00,,,0.00,37,weatherlink.com 1.10,2013-02-20 22:42:00,
2013-02-20 16:56:00,21.6,11.0,30.37,WNW,290,5.0,6.0,64,0.00,,,0.00,26,weatherlink.com 1.10,2013-02-20 22:56:00,
2013-02-20 17:12:00,21.7,11.0,30.37,NNW,329,1.0,6.0,64,0.00,,,0.00,16,weatherlink.com 1.10,2013-02-20 23:12:00,
2013-02-20 17:27:00,21.6,11.0,30.37,NNW,331,2.0,7.0,65,0.00,,,0.00,5,weatherlink.com 1.10,2013-02-20 23:27:00,
2013-02-20 17:42:00,21.4,11.0,30.37,NNW,327,5.0,7.0,64,0.00,,,0.00,0,weatherlink.com 1.10,2013-02-20 23:42:00,
2013-02-20 17:57:00,21.4,11.0,30.37,NW,319,3.0,5.0,65,0.00,,,0.00,0,weatherlink.com 1.10,2013-02-20 23:57:00,
2013-02-20 18:12:00,21.1,12.0,30.36,WNW,295,3.0,5.0,67,0.00,,,0.00,0,weatherlink.com 1.10,2013-02-21 00:12:00,
2013-02-20 18:27:00,20.9,11.0,30.37,WNW,282,4.0,6.0,67,0.00,,,0.00,0,weatherlink.com 1.10,2013-02-21 00:27:00,
2013-02-20 18:44:00,20.7,12.0,30.36,WNW,293,1.0,4.0,68,0.00,,,0.00,0,weatherlink.com 1.10,2013-02-21 00:44:00,
2013-02-20 18:57:00,20.7,12.0,30.37,WNW,286,2.0,5.0,68,0.00,,,0.00,0,weatherlink.com 1.10,2013-02-21 00:57:00,
2013-02-20 19:12:00,20.6,12.0,30.37,NW,319,2.0,4.0,69,0.00,,,0.00,0,weatherlink.com 1.10,2013-02-21 01:12:00,
2013-02-20 19:27:00,20.4,12.0,30.37,WNW,292,2.0,4.0,70,0.00,,,0.00,0,weatherlink.com 1.10,2013-02-21 01:27:00,
2013-02-20 19:42:00,20.3,12.0,30.37,WNW,288,0.0,3.0,70,0.00,,,0.00,0,weatherlink.com 1.10,2013-02-21 01:42:00,
2013-02-20 19:57:00,19.9,12.0,30.36,WSW,238,0.0,2.0,71,0.00,,,0.00,0,weatherlink.com 1.10,2013-02-21 01:57:00,
2013-02-20 20:12:00,19.7,12.0,30.36,WNW,294,1.0,2.0,72,0.00,,,0.00,0,weatherlink.com 1.10,2013-02-21 02:12:00,
2013-02-20 20:27:00,19.5,12.0,30.36,WNW,294,0.0,2.0,72,0.00,,,0.00,0,weatherlink.com 1.10,2013-02-21 02:27:00,
2013-02-20 20:43:00,19.3,12.0,30.36,WNW,294,1.0,3.0,73,0.00,,,0.00,0,weatherlink.com 1.10,2013-02-21 02:43:00,
2013-02-20 20:58:00,19.3,12.0,30.36,WNW,294,2.0,3.0,74,0.00,,,0.00,0,weatherlink.com 1.10,2013-02-21 02:58:00,
2013-02-20 21:13:00,19.5,12.0,30.36,WNW,286,2.0,4.0,73,0.00,,,0.00,0,weatherlink.com 1.10,2013-02-21 03:13:00,
2013-02-20 21:28:00,19.3,12.0,30.36,West,281,1.0,3.0,74,0.00,,,0.00,0,weatherlink.com 1.10,2013-02-21 03:28:00,
2013-02-20 21:43:00,19.2,12.0,30.36,West,279,1.0,3.0,74,0.00,,,0.00,0,weatherlink.com 1.10,2013-02-21 03:43:00,
2013-02-20 21:58:00,19.6,13.0,30.36,WNW,286,1.0,4.0,74,0.00,,,0.00,0,weatherlink.com 1.10,2013-02-21 03:58:00,
2013-02-20 22:13:00,19.7,12.0,30.37,WNW,294,0.0,3.0,73,0.00,,,0.00,0,weatherlink.com 1.10,2013-02-21 04:13:00,
2013-02-20 22:28:00,19.8,13.0,30.37,WNW,296,1.0,4.0,74,0.00,,,0.00,0,weatherlink.com 1.10,2013-02-21 04:28:00,
2013-02-20 22:43:00,19.7,13.0,30.37,WNW,296,2.0,2.0,74,0.00,,,0.00,0,weatherlink.com 1.10,2013-02-21 04:43:00,
2013-02-20 22:58:00,20.3,14.0,30.37,WNW,290,1.0,4.0,75,0.00,,,0.00,0,weatherlink.com 1.10,2013-02-21 04:58:00,
2013-02-20 23:13:00,21.6,15.0,30.37,NW,315,2.0,4.0,76,0.00,,,0.00,0,weatherlink.com 1.10,2013-02-21 05:13:00,
2013-02-20 23:28:00,22.1,16.0,30.37,WNW,298,2.0,8.0,76,0.00,,,0.00,0,weatherlink.com 1.10,2013-02-21 05:28:00,
2013-02-20 23:44:00,22.2,15.0,30.38,NNW,336,3.0,6.0,75,0.00,,,0.00,0,weatherlink.com 1.10,2013-02-21 05:44:00,
2013-02-20 23:59:00,22.3,16.0,30.38,NNW,348,2.0,7.0,76,0.00,,,0.00,0,weatherlink.com 1.10,2013-02-21 05:59:00,